Terminal Aerodrome Forecast
Issued by NWS Wilmington, OH

Current Version | Previous Version | Text Only | Print | Product List | Glossary Off
Versions: 1 2 3 4 5 6 7 8 9 10 11 12 13 14 15 16

363
FTUS41 KILN 210807 AAA
TAFCMH
TAF AMD
KCMH 210807Z 2108/2206 17005KT P6SM BKN035 BKN200
     FM211400 19008KT P6SM SCT025 BKN200
     FM220300 15004KT P6SM SCT025 BKN070=

USA.gov is the U.S. government's official web portal to all federal, state and local government web resources and services.